createdAt,value
2023-03-23T16:00:29.143Z,18.70
2023-03-23T16:04:33.668Z,18.60
2023-03-23T16:08:54.810Z,18.60
2023-03-23T16:12:58.414Z,18.50
2023-03-23T16:17:02.852Z,18.50
2023-03-23T16:21:06.349Z,18.50
2023-03-23T16:25:10.354Z,18.40
2023-03-23T16:29:40.096Z,18.40
2023-03-23T16:33:43.876Z,18.30
2023-03-23T16:37:49.297Z,18.30
2023-03-23T16:41:52.793Z,18.20
2023-03-23T16:46:03.274Z,18.10
2023-03-23T16:50:11.807Z,18.10
2023-03-23T16:54:14.919Z,18.00
2023-03-23T16:58:18.472Z,17.80
2023-03-23T17:02:23.513Z,17.70
2023-03-23T17:06:28.940Z,17.60
2023-03-23T17:10:34.379Z,17.50
2023-03-23T17:14:37.517Z,17.40
2023-03-23T17:18:40.828Z,17.20
2023-03-23T17:22:45.403Z,17.00
2023-03-23T17:26:48.640Z,16.80
2023-03-23T17:30:53.654Z,16.70
2023-03-23T17:34:56.722Z,16.50
2023-03-23T17:39:02.226Z,16.40
2023-03-23T17:43:05.345Z,16.20
2023-03-23T17:47:08.524Z,16.10
2023-03-23T17:51:11.990Z,16.10
2023-03-23T17:55:18.719Z,16.10
2023-03-23T17:59:24.802Z,16.00
2023-03-23T18:03:28.090Z,15.80
2023-03-23T18:07:33.741Z,15.70
2023-03-23T18:11:39.143Z,15.60
2023-03-23T18:15:46.803Z,15.60
2023-03-23T18:19:55.165Z,15.60
2023-03-23T18:23:59.502Z,15.50
2023-03-23T18:28:05.477Z,15.40
2023-03-23T18:32:13.476Z,15.40
2023-03-23T18:36:22.608Z,15.40
2023-03-23T18:40:26.804Z,15.40
2023-03-23T18:44:32.190Z,15.30
2023-03-23T18:48:38.800Z,15.30
2023-03-23T18:52:42.274Z,15.20
2023-03-23T18:56:45.478Z,15.10
2023-03-23T19:00:53.884Z,15.00
2023-03-23T19:04:59.808Z,14.80
2023-03-23T19:09:02.989Z,14.70
2023-03-23T19:13:06.052Z,14.50
2023-03-23T19:17:13.381Z,14.50
2023-03-23T19:21:19.837Z,14.50
2023-03-23T19:25:30.307Z,14.60
2023-03-23T19:29:37.766Z,14.60
2023-03-23T19:33:43.677Z,14.60
2023-03-23T19:37:46.798Z,14.60
2023-03-23T19:41:50.556Z,14.50
2023-03-23T19:45:53.774Z,14.40
2023-03-23T19:50:00.002Z,14.40
2023-03-23T19:54:03.186Z,14.30
2023-03-23T19:58:08.362Z,14.10
2023-03-23T20:02:14.861Z,14.10
2023-03-23T20:06:23.630Z,14.00
2023-03-23T20:10:34.561Z,14.00
2023-03-23T20:14:38.293Z,14.00
2023-03-23T20:18:41.762Z,14.10
2023-03-23T20:22:46.586Z,14.10
2023-03-23T20:26:52.969Z,14.00
2023-03-23T20:31:19.997Z,14.10
2023-03-23T20:35:29.428Z,14.10
2023-03-23T20:39:37.931Z,14.10
2023-03-23T20:43:42.655Z,14.20
2023-03-23T20:47:45.736Z,14.20
2023-03-23T20:51:51.465Z,14.20
2023-03-23T20:55:57.791Z,14.20
2023-03-23T21:00:01.169Z,14.20
2023-03-23T21:04:15.587Z,14.20
2023-03-23T21:08:23.175Z,14.20
2023-03-23T21:12:30.210Z,14.10
2023-03-23T21:16:33.368Z,14.10
2023-03-23T21:20:37.769Z,14.10
2023-03-23T21:24:43.295Z,14.00
2023-03-23T21:28:50.739Z,14.00
2023-03-23T21:32:56.582Z,14.00
2023-03-23T21:36:59.777Z,14.00
2023-03-23T21:41:08.712Z,14.00
2023-03-23T21:45:18.742Z,14.10
2023-03-23T21:49:21.943Z,14.20
2023-03-23T21:53:27.065Z,14.20
2023-03-23T21:57:30.374Z,14.30
2023-03-23T22:01:37.244Z,14.30
2023-03-23T22:05:41.148Z,14.30
2023-03-23T22:09:45.050Z,14.30
2023-03-23T22:13:49.215Z,14.30
2023-03-23T22:17:53.899Z,14.30
2023-03-23T22:22:05.966Z,14.20
2023-03-23T22:26:10.272Z,14.20
2023-03-23T22:30:17.058Z,14.20
2023-03-23T22:34:24.332Z,14.10
2023-03-23T22:38:27.771Z,14.00
2023-03-23T22:42:31.204Z,13.90
2023-03-23T22:46:36.945Z,13.80
2023-03-23T22:50:41.487Z,13.70
2023-03-23T22:54:44.625Z,13.70
2023-03-23T22:58:52.144Z,13.60
2023-03-23T23:02:57.044Z,13.50
2023-03-23T23:07:12.448Z,13.40
2023-03-23T23:11:19.310Z,13.30
2023-03-23T23:15:24.471Z,13.20
2023-03-23T23:19:27.826Z,13.20
2023-03-23T23:23:37.572Z,13.10
2023-03-23T23:27:41.182Z,13.10
2023-03-23T23:31:44.500Z,13.00
2023-03-23T23:35:48.516Z,13.00
2023-03-23T23:39:53.743Z,13.00
2023-03-23T23:44:00.201Z,13.10
2023-03-23T23:48:03.762Z,13.10
2023-03-23T23:52:08.767Z,13.20
2023-03-23T23:56:19.452Z,13.20
